createdAt,value
2022-07-25T00:01:50.795Z,3.50
2022-07-25T00:04:18.835Z,3.70
2022-07-25T00:06:46.673Z,3.90
2022-07-25T00:09:13.722Z,3.90
2022-07-25T00:11:41.451Z,4.35
2022-07-25T00:14:08.851Z,4.75
2022-07-25T00:16:36.017Z,5.00
2022-07-25T00:19:03.282Z,4.20
2022-07-25T00:21:30.197Z,3.83
2022-07-25T00:23:57.157Z,4.00
2022-07-25T00:26:24.208Z,4.25
2022-07-25T00:28:51.149Z,4.85
2022-07-25T00:31:18.109Z,4.90
2022-07-25T00:33:45.023Z,4.78
2022-07-25T00:36:11.926Z,4.70
2022-07-25T00:38:38.886Z,5.20
2022-07-25T00:41:06.144Z,4.30
2022-07-25T00:43:33.125Z,4.70
2022-07-25T00:46:00.321Z,4.45
2022-07-25T00:48:29.156Z,4.40
2022-07-25T00:50:57.005Z,4.22
2022-07-25T00:53:24.893Z,4.07
2022-07-25T00:55:52.633Z,3.90
2022-07-25T00:58:19.630Z,4.25
2022-07-25T01:00:47.577Z,4.30
2022-07-25T01:03:15.180Z,3.75
2022-07-25T01:05:42.374Z,3.90
2022-07-25T01:08:10.278Z,4.65
2022-07-25T01:10:38.485Z,4.55
2022-07-25T01:13:05.608Z,4.63
2022-07-25T01:15:32.761Z,4.13
2022-07-25T01:17:59.862Z,4.10
2022-07-25T01:20:29.185Z,3.88
2022-07-25T01:22:57.117Z,4.22
2022-07-25T01:25:25.235Z,4.00
2022-07-25T01:27:55.750Z,4.43
2022-07-25T01:30:24.654Z,4.38
2022-07-25T01:32:52.399Z,4.70
2022-07-25T01:35:20.271Z,4.30
2022-07-25T01:37:47.229Z,4.53
2022-07-25T01:40:15.137Z,4.13
2022-07-25T01:42:43.458Z,4.97
2022-07-25T01:45:12.124Z,5.70
2022-07-25T01:47:39.641Z,5.10
2022-07-25T01:50:07.842Z,5.65
2022-07-25T01:52:36.310Z,4.50
2022-07-25T01:55:03.726Z,5.03
2022-07-25T01:57:33.110Z,5.13
2022-07-25T02:00:00.243Z,5.15
2022-07-25T02:02:27.467Z,6.05
2022-07-25T02:04:55.173Z,5.85
2022-07-25T02:07:22.106Z,6.40
2022-07-25T02:09:53.321Z,5.90
2022-07-25T02:12:23.363Z,6.32
2022-07-25T02:14:50.460Z,5.25
2022-07-25T02:17:17.580Z,5.70
2022-07-25T02:19:44.735Z,6.47
2022-07-25T02:22:11.726Z,6.70
2022-07-25T02:24:38.841Z,6.45
2022-07-25T02:27:06.320Z,6.30
2022-07-25T02:29:33.469Z,5.80
2022-07-25T02:32:00.383Z,5.60
2022-07-25T02:34:27.294Z,5.50
2022-07-25T02:36:54.184Z,5.35
2022-07-25T02:39:21.544Z,6.05
2022-07-25T02:41:48.497Z,4.63
2022-07-25T02:44:15.370Z,5.35
2022-07-25T02:46:42.296Z,4.75
2022-07-25T02:49:09.242Z,5.38
2022-07-25T02:51:36.188Z,4.65
2022-07-25T02:54:03.127Z,5.40
2022-07-25T02:56:32.100Z,5.30
2022-07-25T02:58:59.721Z,4.70
2022-07-25T03:01:27.087Z,4.68
2022-07-25T03:03:54.225Z,4.57
2022-07-25T03:06:21.321Z,4.70
2022-07-25T03:08:48.448Z,5.13
2022-07-25T03:11:16.762Z,5.57
2022-07-25T03:13:43.994Z,4.90
2022-07-25T03:16:11.220Z,5.03
2022-07-25T03:18:38.312Z,5.25
2022-07-25T03:21:06.017Z,5.45
2022-07-25T03:23:33.345Z,5.50
2022-07-25T03:26:00.363Z,5.40
2022-07-25T03:28:27.361Z,5.35
2022-07-25T03:30:54.898Z,6.18
2022-07-25T03:33:22.119Z,6.40
2022-07-25T03:35:50.278Z,6.05
2022-07-25T03:38:17.269Z,7.45
2022-07-25T03:40:44.524Z,7.00
2022-07-25T03:43:11.501Z,6.63
2022-07-25T03:45:38.516Z,7.47
2022-07-25T03:48:05.892Z,6.90
2022-07-25T03:50:32.886Z,6.57
2022-07-25T03:52:59.909Z,6.63
2022-07-25T03:55:26.943Z,6.60
2022-07-25T03:57:53.838Z,7.00
2022-07-25T04:00:20.773Z,6.72
2022-07-25T04:02:47.721Z,7.72
2022-07-25T04:05:14.754Z,7.32
2022-07-25T04:07:41.684Z,6.70
2022-07-25T04:10:09.618Z,7.20
2022-07-25T04:12:36.545Z,6.65
2022-07-25T04:15:03.716Z,6.47
2022-07-25T04:17:30.698Z,7.55
2022-07-25T04:19:57.713Z,6.72
2022-07-25T04:22:24.707Z,7.32
2022-07-25T04:24:51.713Z,5.88
2022-07-25T04:27:18.621Z,5.55
2022-07-25T04:29:45.656Z,6.68
2022-07-25T04:32:13.805Z,6.05
2022-07-25T04:34:40.936Z,5.15
2022-07-25T04:37:07.868Z,4.20
2022-07-25T04:39:34.782Z,3.97
2022-07-25T04:42:01.651Z,3.53
2022-07-25T04:44:28.619Z,3.17
2022-07-25T04:46:55.518Z,3.03
2022-07-25T04:49:22.439Z,2.80
2022-07-25T04:51:49.583Z,3.33
2022-07-25T04:54:16.519Z,3.00
2022-07-25T04:56:43.454Z,3.05
2022-07-25T04:59:10.381Z,3.00
2022-07-25T05:01:38.081Z,2.88
2022-07-25T05:04:05.683Z,3.47
2022-07-25T05:06:33.258Z,3.20
2022-07-25T05:09:00.403Z,3.22
2022-07-25T05:11:27.400Z,3.50
2022-07-25T05:13:54.427Z,4.00
2022-07-25T05:16:21.655Z,4.15
2022-07-25T05:18:48.677Z,3.53
2022-07-25T05:21:15.583Z,3.90
2022-07-25T05:23:42.509Z,3.60
2022-07-25T05:26:09.486Z,3.08
2022-07-25T05:28:36.795Z,2.92
2022-07-25T05:31:04.749Z,2.70
2022-07-25T05:33:31.743Z,2.60
2022-07-25T05:35:58.838Z,2.55
2022-07-25T05:38:25.765Z,2.60
2022-07-25T05:40:52.813Z,3.00
2022-07-25T05:43:21.382Z,3.10
2022-07-25T05:45:48.755Z,3.63
2022-07-25T05:48:16.183Z,3.60
2022-07-25T05:50:44.136Z,3.70
2022-07-25T05:53:11.016Z,3.65
2022-07-25T05:55:40.697Z,3.78
2022-07-25T05:58:09.555Z,3.58
2022-07-25T06:00:37.592Z,3.80
2022-07-25T06:03:05.060Z,4.05
2022-07-25T06:05:32.195Z,4.00
2022-07-25T06:07:59.280Z,4.10
2022-07-25T06:10:26.310Z,4.38
2022-07-25T06:12:53.323Z,4.18
2022-07-25T06:15:22.873Z,4.00
2022-07-25T06:17:54.772Z,3.67
2022-07-25T06:20:22.192Z,3.28
2022-07-25T06:22:49.376Z,3.40
2022-07-25T06:25:16.655Z,3.83
2022-07-25T06:27:44.626Z,4.10
2022-07-25T06:30:20.220Z,4.22
2022-07-25T06:32:49.509Z,5.05
2022-07-25T06:35:18.761Z,4.10
2022-07-25T06:37:46.391Z,3.97
2022-07-25T06:40:14.585Z,4.00
2022-07-25T06:42:44.097Z,4.32
2022-07-25T06:45:12.998Z,4.53
2022-07-25T06:47:41.562Z,5.50
2022-07-25T06:50:12.266Z,3.90
2022-07-25T06:52:40.805Z,5.05
2022-07-25T06:55:09.854Z,4.82
2022-07-25T06:57:38.024Z,4.50
2022-07-25T07:00:10.164Z,4.60
2022-07-25T07:02:50.038Z,4.60
2022-07-25T07:05:17.003Z,5.70
2022-07-25T07:07:47.827Z,4.85
2022-07-25T07:10:16.220Z,4.55
2022-07-25T07:12:43.518Z,3.70
2022-07-25T07:15:11.998Z,3.83
2022-07-25T07:17:39.231Z,3.95
2022-07-25T07:20:08.771Z,3.78
2022-07-25T07:22:47.809Z,4.13
2022-07-25T07:25:17.977Z,3.97
2022-07-25T07:27:47.862Z,3.80
2022-07-25T07:30:16.770Z,3.70
2022-07-25T07:32:47.188Z,3.92
2022-07-25T07:35:16.643Z,4.13
2022-07-25T07:37:44.601Z,4.38
2022-07-25T07:40:17.785Z,4.70
2022-07-25T07:42:49.441Z,3.83
2022-07-25T07:45:26.030Z,4.15
2022-07-25T07:47:57.180Z,3.97
2022-07-25T07:50:27.753Z,3.58
2022-07-25T07:52:56.423Z,4.00
2022-07-25T07:55:42.471Z,3.40
2022-07-25T07:58:11.061Z,3.10
2022-07-25T08:00:39.531Z,2.90
2022-07-25T08:03:08.981Z,2.85
2022-07-25T08:05:43.101Z,3.03
2022-07-25T08:08:12.752Z,2.70
2022-07-25T08:10:46.079Z,3.28
2022-07-25T08:13:22.655Z,3.10
2022-07-25T08:15:54.879Z,2.65
2022-07-25T08:18:22.189Z,2.40
2022-07-25T08:20:50.338Z,2.78
2022-07-25T08:23:18.203Z,2.75
2022-07-25T08:25:46.661Z,2.80
2022-07-25T08:28:14.425Z,2.90
2022-07-25T08:30:42.710Z,2.30
2022-07-25T08:33:16.460Z,2.30
2022-07-25T08:35:52.505Z,2.45
2022-07-25T08:38:21.878Z,2.40
2022-07-25T08:40:49.503Z,2.30
2022-07-25T08:43:17.636Z,2.10
2022-07-25T08:45:51.525Z,2.15
2022-07-25T08:48:25.559Z,2.15
2022-07-25T08:50:54.632Z,2.10
2022-07-25T08:53:37.678Z,2.00
2022-07-25T08:56:14.608Z,2.10
2022-07-25T08:58:45.101Z,2.22
2022-07-25T09:01:13.820Z,2.20
2022-07-25T09:03:43.519Z,2.20
2022-07-25T09:06:22.367Z,2.15
2022-07-25T09:08:55.479Z,1.92
2022-07-25T09:11:36.165Z,1.60
2022-07-25T09:14:14.912Z,1.90
2022-07-25T09:16:45.184Z,1.70
2022-07-25T09:19:21.509Z,2.10
2022-07-25T09:22:07.272Z,2.17
2022-07-25T09:24:38.250Z,2.20
2022-07-25T09:27:12.428Z,2.38
2022-07-25T09:32:22.907Z,2.33
2022-07-25T09:34:51.416Z,2.28
2022-07-25T09:37:26.248Z,2.33
2022-07-25T09:39:53.297Z,2.28
2022-07-25T09:42:27.252Z,2.20
2022-07-25T09:44:58.687Z,2.30
2022-07-25T09:47:25.660Z,2.08
2022-07-25T09:49:53.369Z,1.83
2022-07-25T09:52:20.373Z,2.20
2022-07-25T09:54:47.348Z,2.22
2022-07-25T09:57:14.445Z,2.28
2022-07-25T09:59:41.795Z,2.13
2022-07-25T10:02:12.612Z,2.28
2022-07-25T10:04:56.604Z,1.92
2022-07-25T10:07:29.446Z,1.90
2022-07-25T10:09:59.792Z,2.40
2022-07-25T10:12:26.703Z,1.75
2022-07-25T10:15:12.361Z,2.30
2022-07-25T10:17:41.569Z,2.17
2022-07-25T10:20:10.668Z,1.88
2022-07-25T10:22:56.417Z,2.28
2022-07-25T10:25:24.115Z,2.35
2022-07-25T10:28:01.211Z,2.50
2022-07-25T10:30:36.156Z,1.98
2022-07-25T10:33:15.053Z,2.00
2022-07-25T10:35:49.041Z,2.00
2022-07-25T10:38:27.114Z,2.20
2022-07-25T10:40:54.805Z,2.45
2022-07-25T10:43:25.969Z,2.35
2022-07-25T10:45:58.093Z,1.90
2022-07-25T10:48:31.464Z,1.90
2022-07-25T10:51:08.383Z,2.00
2022-07-25T10:53:45.638Z,1.70
2022-07-25T10:56:23.283Z,2.10
2022-07-25T10:58:52.655Z,1.77
2022-07-25T11:01:33.776Z,1.92
2022-07-25T11:04:04.847Z,2.10
2022-07-25T11:06:37.617Z,1.98
2022-07-25T11:09:28.284Z,1.92
2022-07-25T11:11:58.843Z,2.13
2022-07-25T11:14:34.119Z,2.00
2022-07-25T11:17:22.430Z,1.95
2022-07-25T11:20:09.922Z,2.17
2022-07-25T11:22:36.850Z,2.30
2022-07-25T11:25:14.391Z,2.30
2022-07-25T11:27:41.425Z,2.00
2022-07-25T11:30:20.118Z,1.88
2022-07-25T11:32:51.194Z,2.15
2022-07-25T11:35:27.052Z,1.80
2022-07-25T11:37:54.560Z,1.90
2022-07-25T11:40:22.946Z,2.13
2022-07-25T11:42:59.769Z,2.08
2022-07-25T11:45:33.585Z,2.05
2022-07-25T11:48:08.023Z,2.22
2022-07-25T11:50:43.421Z,2.13
2022-07-25T11:53:14.901Z,2.33
2022-07-25T11:55:43.494Z,2.40
2022-07-25T11:58:13.308Z,2.08
2022-07-25T12:00:44.923Z,2.20
2022-07-25T12:03:19.439Z,1.80
2022-07-25T12:05:49.191Z,2.00
2022-07-25T12:08:19.862Z,2.25
2022-07-25T12:10:50.604Z,2.20
2022-07-25T12:13:29.036Z,1.70
2022-07-25T12:16:00.293Z,1.70
2022-07-25T12:18:28.962Z,1.70
2022-07-25T12:20:56.081Z,1.40
2022-07-25T12:23:23.109Z,1.75
2022-07-25T12:25:51.017Z,1.75
2022-07-25T12:28:18.726Z,1.45
2022-07-25T12:30:47.084Z,1.92
2022-07-25T12:33:14.902Z,1.90
2022-07-25T12:35:43.583Z,2.05
2022-07-25T12:38:11.908Z,1.80
2022-07-25T12:40:39.300Z,1.77
2022-07-25T12:43:06.798Z,1.88
2022-07-25T12:45:33.992Z,1.80
2022-07-25T12:48:01.460Z,1.35
2022-07-25T12:50:28.478Z,1.65
2022-07-25T12:52:55.520Z,1.45
2022-07-25T12:55:22.636Z,1.30
2022-07-25T12:57:50.845Z,1.20
2022-07-25T13:00:22.204Z,1.40
2022-07-25T13:02:52.069Z,1.40
2022-07-25T13:05:19.948Z,1.70
2022-07-25T13:07:49.048Z,1.40
2022-07-25T13:10:17.377Z,1.60
2022-07-25T13:12:44.591Z,1.48
2022-07-25T13:15:11.668Z,1.88
2022-07-25T13:17:40.508Z,1.88
2022-07-25T13:20:09.641Z,1.40
2022-07-25T13:22:36.721Z,1.35
2022-07-25T13:25:04.415Z,1.48
2022-07-25T13:27:31.340Z,1.77
2022-07-25T13:29:58.350Z,1.40
2022-07-25T13:32:26.786Z,1.65
2022-07-25T13:34:53.986Z,1.45
2022-07-25T13:37:21.071Z,1.10
2022-07-25T13:39:48.957Z,1.00
2022-07-25T13:42:15.975Z,1.02
2022-07-25T13:44:43.422Z,1.00
2022-07-25T13:47:10.456Z,1.13
2022-07-25T13:49:37.515Z,1.23
2022-07-25T13:52:05.012Z,1.15
2022-07-25T13:54:32.254Z,0.98
2022-07-25T13:56:59.414Z,1.30
2022-07-25T13:59:26.510Z,1.27
2022-07-25T14:01:53.540Z,1.20
2022-07-25T14:04:20.408Z,1.05
2022-07-25T14:06:52.050Z,0.80
2022-07-25T14:09:21.249Z,1.00
2022-07-25T14:11:48.405Z,0.90
2022-07-25T14:14:15.797Z,1.20
2022-07-25T14:16:43.027Z,1.08
2022-07-25T14:19:10.795Z,1.10
2022-07-25T14:21:38.084Z,0.88
2022-07-25T14:24:05.493Z,1.00
2022-07-25T14:26:34.890Z,0.90
2022-07-25T14:29:02.494Z,1.00
2022-07-25T14:31:32.890Z,1.00
2022-07-25T14:34:00.348Z,1.00
2022-07-25T14:36:27.907Z,1.02
2022-07-25T14:38:55.040Z,0.93
2022-07-25T14:41:22.983Z,0.90
2022-07-25T14:43:49.865Z,0.70
2022-07-25T14:46:17.009Z,1.23
2022-07-25T14:48:44.064Z,1.00
2022-07-25T14:51:11.096Z,0.70
2022-07-25T14:53:38.860Z,0.80
2022-07-25T14:56:06.609Z,0.75
2022-07-25T14:58:34.137Z,0.63
2022-07-25T15:01:01.763Z,0.93
2022-07-25T15:03:29.215Z,1.10
2022-07-25T15:05:56.564Z,0.60
2022-07-25T15:08:23.845Z,0.75
2022-07-25T15:10:51.099Z,1.20
2022-07-25T15:13:31.018Z,1.10
2022-07-25T15:15:59.051Z,0.80
2022-07-25T15:18:26.131Z,0.85
2022-07-25T15:20:53.293Z,0.77
2022-07-25T15:23:21.737Z,0.90
2022-07-25T15:26:05.016Z,0.77
2022-07-25T15:28:38.213Z,1.20
2022-07-25T15:31:06.420Z,1.00
2022-07-25T15:33:33.613Z,1.20
2022-07-25T15:36:00.814Z,0.90
2022-07-25T15:38:29.242Z,0.90
2022-07-25T15:40:57.574Z,1.00
2022-07-25T15:43:25.591Z,1.30
2022-07-25T15:45:53.295Z,0.82
2022-07-25T15:48:20.635Z,1.17
2022-07-25T15:50:51.841Z,1.00
2022-07-25T15:53:19.165Z,0.85
2022-07-25T15:55:46.463Z,0.70
2022-07-25T15:58:14.290Z,1.00
2022-07-25T16:00:42.201Z,1.00
2022-07-25T16:03:10.026Z,0.88
2022-07-25T16:05:38.636Z,1.23
2022-07-25T16:08:08.466Z,0.77
2022-07-25T16:10:38.340Z,0.95
2022-07-25T16:13:05.288Z,1.00
2022-07-25T16:15:32.667Z,0.60
2022-07-25T16:18:02.615Z,0.85
2022-07-25T16:20:32.113Z,0.93
2022-07-25T16:23:00.476Z,0.90
2022-07-25T16:25:29.503Z,0.90
2022-07-25T16:27:57.834Z,0.80
2022-07-25T16:30:26.070Z,1.00
2022-07-25T16:32:53.161Z,0.90
2022-07-25T16:35:21.911Z,0.93
2022-07-25T16:37:48.808Z,0.70
2022-07-25T16:40:16.054Z,0.80
2022-07-25T16:42:43.454Z,0.90
2022-07-25T16:45:11.171Z,0.90
2022-07-25T16:47:40.199Z,0.75
2022-07-25T16:50:07.851Z,0.60
2022-07-25T16:52:35.078Z,1.10
2022-07-25T16:55:02.274Z,0.80
2022-07-25T16:57:29.374Z,0.73
2022-07-25T16:59:56.389Z,1.08
2022-07-25T17:02:29.008Z,1.13
2022-07-25T17:04:57.505Z,0.70
2022-07-25T17:07:25.675Z,0.80
2022-07-25T17:09:53.115Z,0.60
2022-07-25T17:12:20.654Z,0.73
2022-07-25T17:14:47.988Z,0.80
2022-07-25T17:17:14.933Z,0.68
2022-07-25T17:19:41.976Z,0.50
2022-07-25T17:22:10.888Z,0.52
2022-07-25T17:24:38.842Z,0.65
2022-07-25T17:27:08.244Z,0.75
2022-07-25T17:29:35.941Z,0.90
2022-07-25T17:32:06.080Z,0.75
2022-07-25T17:34:33.116Z,1.00
2022-07-25T17:37:03.034Z,0.70
2022-07-25T17:39:31.751Z,0.70
2022-07-25T17:41:59.138Z,0.80
2022-07-25T17:44:27.050Z,1.13
2022-07-25T17:46:55.075Z,0.98
2022-07-25T17:49:22.361Z,0.90
2022-07-25T17:51:49.394Z,0.82
2022-07-25T17:54:16.491Z,0.77
2022-07-25T17:56:45.389Z,0.93
2022-07-25T17:59:12.356Z,0.98
2022-07-25T18:01:40.650Z,0.88
2022-07-25T18:04:08.283Z,0.82
2022-07-25T18:06:35.685Z,0.80
2022-07-25T18:09:02.830Z,0.80
2022-07-25T18:11:29.784Z,0.82
2022-07-25T18:13:56.749Z,0.85
2022-07-25T18:16:23.715Z,0.80
2022-07-25T18:18:52.423Z,0.50
2022-07-25T18:21:19.817Z,0.70
2022-07-25T18:23:46.804Z,0.65
2022-07-25T18:26:13.731Z,0.70
2022-07-25T18:28:40.869Z,0.75
2022-07-25T18:31:08.791Z,0.93
2022-07-25T18:33:36.170Z,0.80
2022-07-25T18:36:07.634Z,0.77
2022-07-25T18:38:36.181Z,1.00
2022-07-25T18:41:27.420Z,1.10
2022-07-25T18:43:52.833Z,0.90
2022-07-25T18:46:20.294Z,0.88
2022-07-25T18:48:47.580Z,0.60
2022-07-25T18:51:14.616Z,0.90
2022-07-25T18:53:45.968Z,1.27
2022-07-25T18:56:16.125Z,1.10
2022-07-25T18:58:43.887Z,1.15
2022-07-25T19:01:11.447Z,1.25
2022-07-25T19:03:40.172Z,1.00
2022-07-25T19:06:10.617Z,1.20
2022-07-25T19:08:38.117Z,1.00
2022-07-25T19:11:06.118Z,1.10
2022-07-25T19:13:51.282Z,0.80
2022-07-25T19:16:19.980Z,1.20
2022-07-25T19:18:47.553Z,1.23
2022-07-25T19:21:15.399Z,1.40
2022-07-25T19:23:48.214Z,1.17
2022-07-25T19:26:17.674Z,1.27
2022-07-25T19:28:44.777Z,1.40
2022-07-25T19:31:11.860Z,1.10
2022-07-25T19:33:40.214Z,1.30
2022-07-25T19:36:07.972Z,1.30
2022-07-25T19:38:35.751Z,1.50
2022-07-25T19:41:02.721Z,1.48
2022-07-25T19:43:30.007Z,1.30
2022-07-25T19:45:57.009Z,1.20
2022-07-25T19:48:24.252Z,1.25
2022-07-25T19:50:52.551Z,1.30
2022-07-25T19:53:19.543Z,1.50
2022-07-25T19:55:46.861Z,1.10
2022-07-25T19:58:13.861Z,1.38
2022-07-25T20:00:41.168Z,1.27
2022-07-25T20:03:08.096Z,1.35
2022-07-25T20:05:36.891Z,1.73
2022-07-25T20:08:04.024Z,1.25
2022-07-25T20:10:31.160Z,1.45
2022-07-25T20:13:01.471Z,1.42
2022-07-25T20:15:29.161Z,1.20
2022-07-25T20:17:56.946Z,1.38
2022-07-25T20:20:24.855Z,1.35
2022-07-25T20:22:52.218Z,1.60
2022-07-25T20:25:19.948Z,1.30
2022-07-25T20:27:49.664Z,1.42
2022-07-25T20:30:17.591Z,1.20
2022-07-25T20:32:45.203Z,1.38
2022-07-25T20:35:12.385Z,1.30
2022-07-25T20:37:40.521Z,1.65
2022-07-25T20:40:10.457Z,1.58
2022-07-25T20:42:38.287Z,1.60
2022-07-25T20:45:09.032Z,1.60
2022-07-25T20:47:36.044Z,1.55
2022-07-25T20:50:03.524Z,1.60
2022-07-25T20:52:32.987Z,1.60
2022-07-25T20:55:00.477Z,1.38
2022-07-25T20:57:27.639Z,1.50
2022-07-25T20:59:54.583Z,1.25
2022-07-25T21:02:21.680Z,1.58
2022-07-25T21:04:48.867Z,1.33
2022-07-25T21:07:17.145Z,1.40
2022-07-25T21:09:44.916Z,1.38
2022-07-25T21:12:11.862Z,1.67
2022-07-25T21:14:38.786Z,1.65
2022-07-25T21:17:06.903Z,1.48
2022-07-25T21:19:34.067Z,1.50
2022-07-25T21:22:02.459Z,1.50
2022-07-25T21:24:29.520Z,1.50
2022-07-25T21:26:56.526Z,1.38
2022-07-25T21:29:23.524Z,1.30
2022-07-25T21:31:50.665Z,1.35
2022-07-25T21:34:17.719Z,1.35
2022-07-25T21:36:47.043Z,1.63
2022-07-25T21:39:14.516Z,1.48
2022-07-25T21:41:43.695Z,1.85
2022-07-25T21:44:11.086Z,1.90
2022-07-25T21:46:38.266Z,1.55
2022-07-25T21:49:40.602Z,1.30
2022-07-25T21:52:13.617Z,1.55
2022-07-25T21:54:42.643Z,1.70
2022-07-25T21:57:13.817Z,1.33
2022-07-25T21:59:45.801Z,1.42
2022-07-25T22:02:13.814Z,1.75
2022-07-25T22:04:40.851Z,1.48
2022-07-25T22:07:08.061Z,1.75
2022-07-25T22:09:35.380Z,2.20
2022-07-25T22:12:02.983Z,2.03
2022-07-25T22:14:30.036Z,1.63
2022-07-25T22:16:57.138Z,1.83
2022-07-25T22:19:24.396Z,1.98
2022-07-25T22:21:51.734Z,2.03
2022-07-25T22:24:18.709Z,2.17
2022-07-25T22:26:45.872Z,2.15
2022-07-25T22:29:12.989Z,1.90
2022-07-25T22:31:40.165Z,2.35
2022-07-25T22:34:07.445Z,2.15
2022-07-25T22:36:34.541Z,2.20
2022-07-25T22:39:01.590Z,2.05
2022-07-25T22:41:28.617Z,1.90
2022-07-25T22:43:58.897Z,1.90
2022-07-25T22:46:29.274Z,2.47
2022-07-25T22:48:57.587Z,1.88
2022-07-25T22:51:25.580Z,2.05
2022-07-25T22:53:52.789Z,2.30
2022-07-25T22:56:19.928Z,2.00
2022-07-25T22:58:49.165Z,2.13
2022-07-25T23:01:17.841Z,3.08
2022-07-25T23:03:45.620Z,2.17
2022-07-25T23:06:13.016Z,2.40
2022-07-25T23:08:40.645Z,2.38
2022-07-25T23:11:09.063Z,2.20
2022-07-25T23:13:37.105Z,2.05
2022-07-25T23:16:05.244Z,1.95
2022-07-25T23:18:38.750Z,2.70
2022-07-25T23:21:06.309Z,2.50
2022-07-25T23:23:33.695Z,2.38
2022-07-25T23:26:01.011Z,2.25
2022-07-25T23:28:28.020Z,2.33
2022-07-25T23:30:55.355Z,2.67
2022-07-25T23:33:25.656Z,2.25
2022-07-25T23:35:53.989Z,2.10
2022-07-25T23:38:22.645Z,2.50
2022-07-25T23:40:50.176Z,2.95
2022-07-25T23:43:26.774Z,3.00
2022-07-25T23:46:05.110Z,2.85
2022-07-25T23:48:34.227Z,3.00
2022-07-25T23:51:01.502Z,3.17
2022-07-25T23:53:28.535Z,2.58
2022-07-25T23:55:55.536Z,3.10
2022-07-25T23:58:22.487Z,3.17
